sensor_id;sensor_type;location;lat;lon;timestamp;temperature;humidity
43647;DHT22;56152;49.996;18.980;2023-05-23T00:04:01;12.10;77.50
43647;DHT22;56152;49.996;18.980;2023-05-23T00:09:03;12.00;77.80
43647;DHT22;56152;49.996;18.980;2023-05-23T00:14:06;11.90;78.20
43647;DHT22;56152;49.996;18.980;2023-05-23T00:19:11;11.80;78.60
43647;DHT22;56152;49.996;18.980;2023-05-23T00:24:14;11.80;78.80
43647;DHT22;56152;49.996;18.980;2023-05-23T00:29:18;11.70;79.00
43647;DHT22;56152;49.996;18.980;2023-05-23T00:34:22;11.60;79.30
43647;DHT22;56152;49.996;18.980;2023-05-23T00:39:24;11.50;79.50
43647;DHT22;56152;49.996;18.980;2023-05-23T00:44:26;11.40;79.90
43647;DHT22;56152;49.996;18.980;2023-05-23T00:49:30;11.30;80.20
43647;DHT22;56152;49.996;18.980;2023-05-23T00:54:32;11.20;80.60
43647;DHT22;56152;49.996;18.980;2023-05-23T00:59:35;11.10;80.80
43647;DHT22;56152;49.996;18.980;2023-05-23T01:04:41;11.00;81.00
43647;DHT22;56152;49.996;18.980;2023-05-23T01:09:43;11.00;81.20
43647;DHT22;56152;49.996;18.980;2023-05-23T01:14:50;10.80;81.40
43647;DHT22;56152;49.996;18.980;2023-05-23T01:19:58;10.70;81.70
43647;DHT22;56152;49.996;18.980;2023-05-23T01:25:09;10.60;81.90
43647;DHT22;56152;49.996;18.980;2023-05-23T01:30:19;10.60;82.30
43647;DHT22;56152;49.996;18.980;2023-05-23T01:35:23;10.50;82.50
43647;DHT22;56152;49.996;18.980;2023-05-23T01:40:25;10.40;83.80
43647;DHT22;56152;49.996;18.980;2023-05-23T01:45:30;10.40;82.20
43647;DHT22;56152;49.996;18.980;2023-05-23T01:50:32;10.30;82.40
43647;DHT22;56152;49.996;18.980;2023-05-23T01:55:34;10.30;82.70
43647;DHT22;56152;49.996;18.980;2023-05-23T02:00:38;10.20;82.80
43647;DHT22;56152;49.996;18.980;2023-05-23T02:05:41;10.10;83.10
43647;DHT22;56152;49.996;18.980;2023-05-23T02:10:46;10.10;83.20
43647;DHT22;56152;49.996;18.980;2023-05-23T02:15:50;9.90;83.40
43647;DHT22;56152;49.996;18.980;2023-05-23T02:20:52;9.70;84.00
43647;DHT22;56152;49.996;18.980;2023-05-23T02:25:57;9.60;84.40
43647;DHT22;56152;49.996;18.980;2023-05-23T02:31:02;9.50;84.70
43647;DHT22;56152;49.996;18.980;2023-05-23T02:36:08;9.50;84.70
43647;DHT22;56152;49.996;18.980;2023-05-23T02:41:10;9.40;85.10
43647;DHT22;56152;49.996;18.980;2023-05-23T02:46:19;9.40;85.20
43647;DHT22;56152;49.996;18.980;2023-05-23T02:51:21;9.20;85.20
43647;DHT22;56152;49.996;18.980;2023-05-23T02:56:23;9.20;86.20
43647;DHT22;56152;49.996;18.980;2023-05-23T03:01:27;9.10;85.60
43647;DHT22;56152;49.996;18.980;2023-05-23T03:06:29;9.00;85.90
43647;DHT22;56152;49.996;18.980;2023-05-23T03:11:33;8.90;86.00
43647;DHT22;56152;49.996;18.980;2023-05-23T03:16:37;8.90;86.20
43647;DHT22;56152;49.996;18.980;2023-05-23T03:21:39;8.90;86.40
43647;DHT22;56152;49.996;18.980;2023-05-23T03:26:41;9.00;86.40
43647;DHT22;56152;49.996;18.980;2023-05-23T03:31:44;9.10;86.30
43647;DHT22;56152;49.996;18.980;2023-05-23T03:36:46;9.20;86.40
43647;DHT22;56152;49.996;18.980;2023-05-23T03:41:48;9.30;86.40
43647;DHT22;56152;49.996;18.980;2023-05-23T03:46:51;9.40;86.50
43647;DHT22;56152;49.996;18.980;2023-05-23T03:51:53;9.50;86.70
43647;DHT22;56152;49.996;18.980;2023-05-23T03:56:55;9.60;86.60
43647;DHT22;56152;49.996;18.980;2023-05-23T04:01:58;9.80;86.60
43647;DHT22;56152;49.996;18.980;2023-05-23T04:07:00;9.90;86.50
43647;DHT22;56152;49.996;18.980;2023-05-23T04:12:02;9.80;86.50
43647;DHT22;56152;49.996;18.980;2023-05-23T04:17:07;9.90;87.00
43647;DHT22;56152;49.996;18.980;2023-05-23T04:22:09;10.00;87.00
43647;DHT22;56152;49.996;18.980;2023-05-23T04:27:11;10.50;87.00
43647;DHT22;56152;49.996;18.980;2023-05-23T04:32:15;10.90;86.40
43647;DHT22;56152;49.996;18.980;2023-05-23T04:37:19;11.30;85.70
43647;DHT22;56152;49.996;18.980;2023-05-23T04:42:27;11.60;85.50
43647;DHT22;56152;49.996;18.980;2023-05-23T04:47:31;12.10;85.00
43647;DHT22;56152;49.996;18.980;2023-05-23T04:52:34;12.60;84.70
43647;DHT22;56152;49.996;18.980;2023-05-23T04:57:36;13.00;83.90
43647;DHT22;56152;49.996;18.980;2023-05-23T05:02:41;13.50;83.40
43647;DHT22;56152;49.996;18.980;2023-05-23T05:07:43;14.00;82.70
43647;DHT22;56152;49.996;18.980;2023-05-23T05:12:46;14.40;81.80
43647;DHT22;56152;49.996;18.980;2023-05-23T05:17:50;14.70;81.90
43647;DHT22;56152;49.996;18.980;2023-05-23T05:22:56;15.10;81.40
43647;DHT22;56152;49.996;18.980;2023-05-23T05:28:01;15.60;80.60
43647;DHT22;56152;49.996;18.980;2023-05-23T05:33:06;15.80;79.50
43647;DHT22;56152;49.996;18.980;2023-05-23T05:38:09;16.00;79.30
43647;DHT22;56152;49.996;18.980;2023-05-23T05:43:11;16.20;78.70
43647;DHT22;56152;49.996;18.980;2023-05-23T05:48:15;16.40;78.40
43647;DHT22;56152;49.996;18.980;2023-05-23T05:53:17;16.70;77.20
43647;DHT22;56152;49.996;18.980;2023-05-23T05:58:20;17.20;77.00
43647;DHT22;56152;49.996;18.980;2023-05-23T06:03:23;17.30;76.10
43647;DHT22;56152;49.996;18.980;2023-05-23T06:08:25;17.60;76.00
43647;DHT22;56152;49.996;18.980;2023-05-23T06:13:27;18.00;75.30
43647;DHT22;56152;49.996;18.980;2023-05-23T06:18:31;18.40;74.10
43647;DHT22;56152;49.996;18.980;2023-05-23T06:23:32;18.80;73.30
43647;DHT22;56152;49.996;18.980;2023-05-23T06:28:35;19.00;72.80
43647;DHT22;56152;49.996;18.980;2023-05-23T06:33:38;19.40;71.90
43647;DHT22;56152;49.996;18.980;2023-05-23T06:38:42;19.80;71.20
43647;DHT22;56152;49.996;18.980;2023-05-23T06:43:44;20.10;70.00
43647;DHT22;56152;49.996;18.980;2023-05-23T06:48:48;19.90;70.50
43647;DHT22;56152;49.996;18.980;2023-05-23T06:53:50;20.40;70.20
43647;DHT22;56152;49.996;18.980;2023-05-23T06:58:52;20.70;69.60
43647;DHT22;56152;49.996;18.980;2023-05-23T07:03:55;20.70;68.50
43647;DHT22;56152;49.996;18.980;2023-05-23T07:08:58;21.10;69.10
43647;DHT22;56152;49.996;18.980;2023-05-23T07:14:00;21.50;67.70
43647;DHT22;56152;49.996;18.980;2023-05-23T07:19:07;21.60;66.80
43647;DHT22;56152;49.996;18.980;2023-05-23T07:24:08;21.40;67.00
43647;DHT22;56152;49.996;18.980;2023-05-23T07:29:10;21.60;66.60
43647;DHT22;56152;49.996;18.980;2023-05-23T07:34:14;22.00;64.50
43647;DHT22;56152;49.996;18.980;2023-05-23T07:39:16;22.00;63.90
43647;DHT22;56152;49.996;18.980;2023-05-23T07:44:21;22.00;64.60
43647;DHT22;56152;49.996;18.980;2023-05-23T07:49:25;22.50;64.50
43647;DHT22;56152;49.996;18.980;2023-05-23T07:54:27;22.90;64.00
43647;DHT22;56152;49.996;18.980;2023-05-23T07:59:30;23.10;63.10
43647;DHT22;56152;49.996;18.980;2023-05-23T08:04:34;23.30;62.20
43647;DHT22;56152;49.996;18.980;2023-05-23T08:09:36;23.00;62.60
43647;DHT22;56152;49.996;18.980;2023-05-23T08:14:38;23.30;62.80
43647;DHT22;56152;49.996;18.980;2023-05-23T08:19:44;23.50;63.30
43647;DHT22;56152;49.996;18.980;2023-05-23T08:24:47;24.20;61.30
43647;DHT22;56152;49.996;18.980;2023-05-23T08:29:49;24.60;59.90
43647;DHT22;56152;49.996;18.980;2023-05-23T08:34:54;24.30;59.10
43647;DHT22;56152;49.996;18.980;2023-05-23T08:39:58;24.00;59.30
43647;DHT22;56152;49.996;18.980;2023-05-23T08:45:01;24.30;59.30
43647;DHT22;56152;49.996;18.980;2023-05-23T08:50:08;24.20;59.80
43647;DHT22;56152;49.996;18.980;2023-05-23T08:55:14;24.50;58.90
43647;DHT22;56152;49.996;18.980;2023-05-23T09:00:18;24.80;57.70
43647;DHT22;56152;49.996;18.980;2023-05-23T09:05:24;25.10;56.20
43647;DHT22;56152;49.996;18.980;2023-05-23T09:10:27;25.10;54.20
43647;DHT22;56152;49.996;18.980;2023-05-23T09:15:29;25.00;54.60
43647;DHT22;56152;49.996;18.980;2023-05-23T09:20:33;25.40;55.20
43647;DHT22;56152;49.996;18.980;2023-05-23T09:25:38;25.70;54.40
43647;DHT22;56152;49.996;18.980;2023-05-23T09:30:47;26.20;53.90
43647;DHT22;56152;49.996;18.980;2023-05-23T09:35:50;26.40;54.00
43647;DHT22;56152;49.996;18.980;2023-05-23T09:41:18;26.70;51.40
43647;DHT22;56152;49.996;18.980;2023-05-23T09:46:26;26.20;52.70
43647;DHT22;56152;49.996;18.980;2023-05-23T09:51:30;25.60;52.80
43647;DHT22;56152;49.996;18.980;2023-05-23T09:56:34;25.30;54.00
43647;DHT22;56152;49.996;18.980;2023-05-23T10:01:37;25.50;53.30
43647;DHT22;56152;49.996;18.980;2023-05-23T10:06:47;25.50;52.20
43647;DHT22;56152;49.996;18.980;2023-05-23T10:12:35;25.70;51.60
43647;DHT22;56152;49.996;18.980;2023-05-23T10:18:05;25.70;50.70
43647;DHT22;56152;49.996;18.980;2023-05-23T10:23:11;26.10;51.70
43647;DHT22;56152;49.996;18.980;2023-05-23T10:28:15;26.20;51.50
43647;DHT22;56152;49.996;18.980;2023-05-23T10:33:17;26.10;50.80
43647;DHT22;56152;49.996;18.980;2023-05-23T10:38:36;26.20;51.60
43647;DHT22;56152;49.996;18.980;2023-05-23T10:43:46;26.10;50.80
43647;DHT22;56152;49.996;18.980;2023-05-23T10:48:54;26.00;51.50
43647;DHT22;56152;49.996;18.980;2023-05-23T10:53:59;26.10;52.00
43647;DHT22;56152;49.996;18.980;2023-05-23T10:59:05;26.30;51.90
43647;DHT22;56152;49.996;18.980;2023-05-23T11:04:11;26.20;51.50
43647;DHT22;56152;49.996;18.980;2023-05-23T11:09:15;26.10;51.50
43647;DHT22;56152;49.996;18.980;2023-05-23T11:14:31;26.20;51.80
43647;DHT22;56152;49.996;18.980;2023-05-23T11:19:33;26.30;51.50
43647;DHT22;56152;49.996;18.980;2023-05-23T11:24:51;26.30;52.20
43647;DHT22;56152;49.996;18.980;2023-05-23T11:30:10;26.10;51.40
43647;DHT22;56152;49.996;18.980;2023-05-23T11:35:13;26.10;51.90
43647;DHT22;56152;49.996;18.980;2023-05-23T11:40:43;26.40;52.10
43647;DHT22;56152;49.996;18.980;2023-05-23T11:45:48;26.50;52.10
43647;DHT22;56152;49.996;18.980;2023-05-23T11:50:52;26.50;51.40
43647;DHT22;56152;49.996;18.980;2023-05-23T11:55:57;26.20;52.40
43647;DHT22;56152;49.996;18.980;2023-05-23T12:01:00;26.00;52.70
43647;DHT22;56152;49.996;18.980;2023-05-23T12:06:03;25.90;52.90
43647;DHT22;56152;49.996;18.980;2023-05-23T12:11:10;25.80;53.20
43647;DHT22;56152;49.996;18.980;2023-05-23T12:16:15;25.90;53.20
43647;DHT22;56152;49.996;18.980;2023-05-23T12:21:17;26.10;53.30
43647;DHT22;56152;49.996;18.980;2023-05-23T12:26:21;25.90;53.70
43647;DHT22;56152;49.996;18.980;2023-05-23T12:31:24;25.80;53.80
43647;DHT22;56152;49.996;18.980;2023-05-23T12:36:29;25.20;53.90
43647;DHT22;56152;49.996;18.980;2023-05-23T12:41:35;23.80;55.70
43647;DHT22;56152;49.996;18.980;2023-05-23T12:46:36;22.60;58.00
43647;DHT22;56152;49.996;18.980;2023-05-23T12:51:39;21.80;59.50
43647;DHT22;56152;49.996;18.980;2023-05-23T12:56:44;21.40;60.70
43647;DHT22;56152;49.996;18.980;2023-05-23T13:01:46;21.40;61.90
43647;DHT22;56152;49.996;18.980;2023-05-23T13:06:54;21.30;62.30
43647;DHT22;56152;49.996;18.980;2023-05-23T13:11:58;21.40;63.00
43647;DHT22;56152;49.996;18.980;2023-05-23T13:17:00;22.10;62.60
43647;DHT22;56152;49.996;18.980;2023-05-23T13:22:02;22.90;62.20
43647;DHT22;56152;49.996;18.980;2023-05-23T13:27:07;23.40;59.80
43647;DHT22;56152;49.996;18.980;2023-05-23T13:32:12;23.10;60.50
43647;DHT22;56152;49.996;18.980;2023-05-23T13:37:14;23.00;61.00
43647;DHT22;56152;49.996;18.980;2023-05-23T13:42:18;22.80;61.60
43647;DHT22;56152;49.996;18.980;2023-05-23T13:47:20;22.60;62.40
